createdAt,value
2022-08-18T00:01:47.928Z,52.30
2022-08-18T00:04:34.828Z,56.50
2022-08-18T00:07:01.903Z,56.40
2022-08-18T00:09:32.241Z,56.50
2022-08-18T00:12:04.677Z,56.50
2022-08-18T00:14:31.921Z,56.30
2022-08-18T00:16:59.340Z,56.20
2022-08-18T00:19:46.923Z,56.40
2022-08-18T00:22:16.655Z,56.20
2022-08-18T00:24:48.276Z,56.10
2022-08-18T00:27:21.622Z,56.10
2022-08-18T00:29:49.413Z,56.10
2022-08-18T00:32:24.105Z,56.00
2022-08-18T00:34:51.020Z,56.20
2022-08-18T00:37:17.837Z,52.30
2022-08-18T00:39:46.635Z,55.70
2022-08-18T00:42:29.158Z,56.00
2022-08-18T00:45:04.397Z,55.80
2022-08-18T00:47:41.980Z,56.10
2022-08-18T00:50:27.190Z,56.00
2022-08-18T00:53:02.530Z,56.20
2022-08-18T00:55:31.573Z,56.00
2022-08-18T00:58:03.706Z,55.50
2022-08-18T01:00:30.439Z,55.70
2022-08-18T01:02:59.828Z,55.40
2022-08-18T01:05:34.878Z,55.60
2022-08-18T01:08:01.901Z,55.70
2022-08-18T01:10:28.643Z,55.90
2022-08-18T01:12:58.279Z,55.80
2022-08-18T01:15:28.747Z,56.20
2022-08-18T01:18:17.798Z,56.10
2022-08-18T01:21:31.558Z,55.90
2022-08-18T01:23:59.504Z,56.10
2022-08-18T01:26:28.408Z,55.70
2022-08-18T01:28:55.007Z,55.80
2022-08-18T01:31:53.289Z,55.60
2022-08-18T01:34:24.652Z,55.20
2022-08-18T01:36:54.067Z,55.70
2022-08-18T01:41:22.455Z,55.80
2022-08-18T01:42:08.956Z,55.60
2022-08-18T01:44:36.188Z,55.70
2022-08-18T01:47:03.303Z,55.80
2022-08-18T01:49:30.040Z,55.90
2022-08-18T01:51:56.668Z,55.80
2022-08-18T01:54:23.344Z,55.60
2022-08-18T01:56:50.138Z,55.60
2022-08-18T01:59:16.838Z,55.70
2022-08-18T02:01:48.181Z,55.70
2022-08-18T02:04:34.332Z,56.00
2022-08-18T02:07:04.190Z,56.10
2022-08-18T02:09:31.277Z,56.00
2022-08-18T02:11:57.884Z,55.90
2022-08-18T02:14:26.901Z,56.00
2022-08-18T02:17:01.909Z,56.00
2022-08-18T02:19:40.853Z,56.10
2022-08-18T02:22:11.837Z,56.20
2022-08-18T02:24:39.266Z,56.00
2022-08-18T02:27:07.466Z,56.00
2022-08-18T02:29:34.227Z,56.10
2022-08-18T02:32:00.857Z,56.10
2022-08-18T02:34:27.581Z,56.00
2022-08-18T02:36:54.456Z,56.00
2022-08-18T02:39:21.397Z,56.00
2022-08-18T02:41:48.367Z,56.00
2022-08-18T02:44:15.025Z,56.00
2022-08-18T02:46:41.849Z,56.00
2022-08-18T02:49:08.524Z,56.00
2022-08-18T02:51:35.609Z,56.00
2022-08-18T02:54:02.621Z,56.00
2022-08-18T02:56:32.974Z,56.00
2022-08-18T02:59:13.617Z,56.40
2022-08-18T03:01:44.057Z,56.30
2022-08-18T03:04:14.314Z,56.40
2022-08-18T03:06:41.020Z,56.30
2022-08-18T03:09:09.756Z,56.10
2022-08-18T03:11:37.527Z,56.60
2022-08-18T03:14:05.702Z,56.40
2022-08-18T03:16:33.336Z,56.30
2022-08-18T03:19:03.886Z,56.20
2022-08-18T03:21:34.833Z,56.50
2022-08-18T03:24:03.156Z,56.40
2022-08-18T03:26:39.225Z,56.30
2022-08-18T03:29:06.026Z,56.10
2022-08-18T03:31:32.851Z,56.20
2022-08-18T03:34:01.481Z,56.30
2022-08-18T03:36:33.897Z,56.40
2022-08-18T03:39:10.479Z,56.40
2022-08-18T03:41:57.564Z,56.60
2022-08-18T03:44:32.184Z,56.60
2022-08-18T03:47:00.223Z,56.50
2022-08-18T03:49:27.182Z,56.30
2022-08-18T03:51:54.419Z,56.20
2022-08-18T03:54:21.172Z,56.40
2022-08-18T03:56:49.426Z,56.40
2022-08-18T03:59:24.652Z,56.40
2022-08-18T04:01:54.925Z,56.50
2022-08-18T04:04:25.387Z,56.50
2022-08-18T04:07:06.389Z,56.90
2022-08-18T04:09:34.575Z,56.80
2022-08-18T04:12:15.502Z,56.60
2022-08-18T04:14:47.716Z,56.90
2022-08-18T04:17:14.702Z,56.40
2022-08-18T04:19:41.970Z,56.30
2022-08-18T04:22:08.781Z,56.40
2022-08-18T04:24:35.920Z,56.30
2022-08-18T04:27:04.856Z,56.20
2022-08-18T04:29:31.704Z,56.40
2022-08-18T04:32:01.990Z,56.20
2022-08-18T04:34:28.628Z,56.30
2022-08-18T04:36:55.263Z,56.20
2022-08-18T04:39:23.071Z,56.10
2022-08-18T04:41:50.798Z,56.10
2022-08-18T04:44:18.150Z,56.20
2022-08-18T04:46:54.313Z,56.40
2022-08-18T04:49:25.504Z,56.70
2022-08-18T04:52:34.401Z,56.90
2022-08-18T04:54:58.544Z,56.70
2022-08-18T04:57:26.160Z,56.40
2022-08-18T04:59:53.414Z,56.60
2022-08-18T05:02:21.212Z,56.70
2022-08-18T05:04:48.238Z,56.80
2022-08-18T05:07:20.249Z,56.80
2022-08-18T05:09:47.020Z,57.00
2022-08-18T05:12:15.457Z,56.70
2022-08-18T05:14:46.488Z,56.80
2022-08-18T05:17:15.913Z,56.70
2022-08-18T05:19:44.629Z,56.80
2022-08-18T05:22:14.569Z,56.60
2022-08-18T05:24:42.704Z,56.40
2022-08-18T05:27:09.388Z,56.60
2022-08-18T05:29:45.870Z,56.70
2022-08-18T05:32:37.104Z,56.80
2022-08-18T05:35:12.342Z,57.20
2022-08-18T05:38:05.018Z,57.10
2022-08-18T05:40:31.885Z,57.10
2022-08-18T05:42:59.256Z,56.90
2022-08-18T05:45:26.942Z,57.30
2022-08-18T05:47:59.777Z,57.40
2022-08-18T05:50:27.539Z,58.50
2022-08-18T05:53:18.337Z,58.50
2022-08-18T05:56:12.116Z,58.80
2022-08-18T05:58:43.298Z,58.80
2022-08-18T06:01:25.496Z,59.00
2022-08-18T06:04:20.751Z,58.50
2022-08-18T06:06:49.230Z,57.20
2022-08-18T06:09:43.512Z,58.60
2022-08-18T06:12:16.324Z,58.90
2022-08-18T06:14:42.945Z,59.40
2022-08-18T06:17:35.490Z,58.90
2022-08-18T06:20:38.379Z,58.90
2022-08-18T06:23:14.831Z,57.50
2022-08-18T06:26:01.515Z,59.50
2022-08-18T06:28:39.301Z,58.30
2022-08-18T06:31:29.327Z,59.30
2022-08-18T06:34:14.636Z,59.50
2022-08-18T06:36:49.687Z,57.60
2022-08-18T06:39:19.133Z,53.50
2022-08-18T06:41:49.045Z,58.50
2022-08-18T06:44:24.236Z,59.30
2022-08-18T06:46:57.632Z,59.30
2022-08-18T06:49:46.529Z,59.70
2022-08-18T06:52:20.315Z,59.00
2022-08-18T06:54:51.341Z,59.90
2022-08-18T06:57:38.188Z,59.60
2022-08-18T07:00:08.658Z,60.00
2022-08-18T07:03:03.894Z,60.00
2022-08-18T07:05:33.909Z,59.20
2022-08-18T07:08:18.608Z,59.50
2022-08-18T07:10:52.221Z,59.70
2022-08-18T07:13:20.765Z,59.80
2022-08-18T07:15:48.432Z,59.80
2022-08-18T07:18:23.469Z,59.40
2022-08-18T07:20:57.281Z,60.30
2022-08-18T07:23:44.201Z,60.20
2022-08-18T07:26:17.914Z,58.10
2022-08-18T07:28:47.842Z,60.50
2022-08-18T07:31:37.522Z,60.10
2022-08-18T07:34:14.972Z,59.50
2022-08-18T07:36:55.102Z,60.80
2022-08-18T07:39:28.565Z,60.50
2022-08-18T07:42:06.723Z,61.00
2022-08-18T07:44:53.607Z,61.00
2022-08-18T07:47:33.717Z,60.40
2022-08-18T07:50:36.341Z,60.30
2022-08-18T07:53:25.376Z,60.00
2022-08-18T07:56:02.150Z,57.70
2022-08-18T07:58:48.808Z,60.40
2022-08-18T08:01:33.777Z,59.50
2022-08-18T08:04:25.688Z,59.90
2022-08-18T08:07:26.081Z,58.90
2022-08-18T08:10:19.092Z,57.50
2022-08-18T08:13:08.424Z,60.20
2022-08-18T08:16:06.688Z,60.40
2022-08-18T08:18:59.718Z,59.30
2022-08-18T08:21:31.513Z,57.70
2022-08-18T08:24:18.582Z,59.50
2022-08-18T08:27:06.061Z,59.00
2022-08-18T08:30:02.780Z,58.90
2022-08-18T08:32:34.623Z,59.40
2022-08-18T08:35:47.026Z,59.10
2022-08-18T08:38:36.529Z,58.60
2022-08-18T08:40:57.501Z,58.10
2022-08-18T08:43:30.393Z,57.90
2022-08-18T08:46:08.193Z,57.70
2022-08-18T08:48:41.225Z,57.90
2022-08-18T08:51:31.789Z,57.00
2022-08-18T08:54:06.837Z,56.80
2022-08-18T08:56:40.178Z,56.70
2022-08-18T08:59:16.213Z,56.40
2022-08-18T09:02:08.630Z,56.20
2022-08-18T09:07:47.756Z,53.00
2022-08-18T09:10:39.708Z,55.30
2022-08-18T09:13:47.029Z,55.30
2022-08-18T09:16:28.003Z,54.40
2022-08-18T09:19:38.730Z,55.20
2022-08-18T09:22:31.082Z,54.10
2022-08-18T09:24:58.199Z,53.50
2022-08-18T09:28:09.937Z,54.00
2022-08-18T09:30:47.732Z,53.20
2022-08-18T09:33:21.743Z,53.40
2022-08-18T09:36:10.106Z,53.40
2022-08-18T09:39:05.272Z,53.10
2022-08-18T09:41:35.208Z,53.00
2022-08-18T09:44:11.959Z,49.80
2022-08-18T09:46:47.641Z,52.20
2022-08-18T09:49:24.887Z,52.30
2022-08-18T09:51:55.762Z,51.70
2022-08-18T09:54:25.457Z,51.30
2022-08-18T09:56:54.207Z,51.00
2022-08-18T09:59:34.922Z,50.90
2022-08-18T10:02:14.196Z,51.40
2022-08-18T10:04:50.541Z,50.60
2022-08-18T10:07:43.680Z,50.60
2022-08-18T10:10:59.116Z,50.90
2022-08-18T10:14:06.596Z,49.80
2022-08-18T10:17:23.457Z,50.10
2022-08-18T10:20:04.667Z,49.20
2022-08-18T10:22:38.888Z,49.70
2022-08-18T10:25:22.286Z,50.10
2022-08-18T10:27:56.511Z,49.40
2022-08-18T10:33:54.015Z,49.10
2022-08-18T10:36:51.222Z,49.10
2022-08-18T10:39:22.162Z,48.90
2022-08-18T10:42:04.237Z,49.30
2022-08-18T10:44:40.895Z,49.50
2022-08-18T10:47:12.296Z,49.40
2022-08-18T10:49:44.562Z,49.70
2022-08-18T10:55:54.699Z,49.30
2022-08-18T10:58:37.056Z,48.90
2022-08-18T11:01:12.162Z,48.90
2022-08-18T11:03:58.882Z,48.70
2022-08-18T11:06:26.659Z,48.60
2022-08-18T11:09:00.045Z,48.10
2022-08-18T11:11:38.132Z,47.90
2022-08-18T11:14:37.293Z,47.70
2022-08-18T11:17:10.961Z,48.20
2022-08-18T11:19:42.044Z,47.60
2022-08-18T11:22:32.570Z,47.70
2022-08-18T11:25:03.342Z,47.70
2022-08-18T11:27:37.146Z,48.40
2022-08-18T11:30:09.771Z,48.10
2022-08-18T11:32:51.459Z,49.00
2022-08-18T11:35:21.831Z,48.80
2022-08-18T11:38:00.538Z,48.80
2022-08-18T11:41:09.610Z,48.80
2022-08-18T11:43:39.017Z,48.80
2022-08-18T11:46:16.419Z,48.50
2022-08-18T11:51:33.739Z,48.40
2022-08-18T11:54:21.797Z,48.30
2022-08-18T11:56:50.340Z,48.50
2022-08-18T11:59:52.183Z,48.00
2022-08-18T12:02:18.117Z,48.00
2022-08-18T12:04:50.385Z,48.10
2022-08-18T12:07:26.563Z,47.30
2022-08-18T12:10:26.480Z,47.40
2022-08-18T12:12:59.654Z,47.60
2022-08-18T12:15:46.336Z,47.80
2022-08-18T12:21:05.831Z,47.90
2022-08-18T12:23:39.003Z,48.20
2022-08-18T12:26:27.390Z,48.30
2022-08-18T12:29:03.365Z,47.80
2022-08-18T12:31:42.723Z,48.50
2022-08-18T12:34:14.946Z,48.40
2022-08-18T12:36:42.380Z,48.40
2022-08-18T12:39:10.429Z,48.10
2022-08-18T12:41:37.736Z,48.00
2022-08-18T12:44:04.999Z,48.20
2022-08-18T12:46:39.897Z,48.20
2022-08-18T12:49:23.641Z,48.40
2022-08-18T12:51:51.559Z,48.20
2022-08-18T12:54:20.109Z,48.50
2022-08-18T12:56:50.227Z,48.30
2022-08-18T12:59:16.924Z,48.40
2022-08-18T13:01:44.555Z,48.40
2022-08-18T13:04:14.125Z,48.50
2022-08-18T13:07:00.048Z,48.40
2022-08-18T13:09:35.720Z,48.20
2022-08-18T13:12:19.801Z,48.40
2022-08-18T13:14:47.921Z,48.40
2022-08-18T13:17:30.361Z,48.40
2022-08-18T13:20:13.560Z,48.50
2022-08-18T13:22:40.872Z,48.30
2022-08-18T13:25:10.316Z,48.70
2022-08-18T13:27:38.089Z,48.70
2022-08-18T13:30:29.888Z,48.60
2022-08-18T13:32:58.813Z,48.60
2022-08-18T13:35:26.848Z,48.90
2022-08-18T13:37:56.905Z,48.20
2022-08-18T13:40:23.717Z,48.30
2022-08-18T13:42:57.104Z,48.40
2022-08-18T13:45:25.547Z,48.30
2022-08-18T13:47:52.780Z,48.70
2022-08-18T13:50:20.865Z,48.40
2022-08-18T13:53:00.823Z,48.40
2022-08-18T13:55:29.044Z,48.50
2022-08-18T13:57:56.370Z,48.50
2022-08-18T14:00:30.350Z,48.90
2022-08-18T14:02:58.935Z,48.30
2022-08-18T14:05:36.419Z,48.90
2022-08-18T14:08:19.253Z,49.20
2022-08-18T14:10:50.431Z,48.90
2022-08-18T14:13:20.802Z,48.50
2022-08-18T14:15:54.783Z,48.90
2022-08-18T14:18:28.726Z,49.10
2022-08-18T14:21:16.106Z,48.50
2022-08-18T14:24:05.636Z,49.00
2022-08-18T14:26:50.531Z,48.90
2022-08-18T14:29:46.268Z,49.20
2022-08-18T14:32:06.076Z,49.00
2022-08-18T14:34:32.930Z,49.20
2022-08-18T14:36:59.746Z,49.00
2022-08-18T14:39:27.527Z,49.20
2022-08-18T14:41:55.892Z,49.30
2022-08-18T14:44:26.138Z,49.50
2022-08-18T14:46:58.495Z,49.50
2022-08-18T14:49:29.357Z,49.20
2022-08-18T14:51:58.105Z,49.20
2022-08-18T14:54:28.355Z,49.40
2022-08-18T14:56:57.159Z,49.70
2022-08-18T14:59:25.055Z,49.70
2022-08-18T15:01:53.537Z,49.60
2022-08-18T15:04:20.977Z,49.80
2022-08-18T15:06:56.125Z,49.80
2022-08-18T15:09:27.528Z,49.90
2022-08-18T15:11:56.552Z,49.80
2022-08-18T15:14:33.573Z,49.90
2022-08-18T15:17:13.222Z,49.60
2022-08-18T15:20:00.702Z,49.90
2022-08-18T15:22:46.237Z,50.20
2022-08-18T15:25:33.559Z,49.80
2022-08-18T15:28:00.670Z,49.90
2022-08-18T15:30:27.896Z,49.80
2022-08-18T15:32:54.772Z,49.80
2022-08-18T15:35:21.393Z,50.10
2022-08-18T15:37:51.047Z,49.70
2022-08-18T15:40:35.678Z,49.80
2022-08-18T15:43:10.167Z,49.70
2022-08-18T15:45:43.274Z,49.80
2022-08-18T15:48:24.331Z,49.70
2022-08-18T15:50:51.462Z,49.50
2022-08-18T15:53:21.914Z,49.50
2022-08-18T15:55:50.257Z,49.30
2022-08-18T15:58:22.203Z,49.60
2022-08-18T16:00:49.405Z,49.60
2022-08-18T16:03:17.665Z,49.60
2022-08-18T16:05:54.459Z,49.70
2022-08-18T16:08:24.415Z,49.90
2022-08-18T16:10:52.080Z,50.10
2022-08-18T16:13:19.192Z,50.00
2022-08-18T16:15:48.163Z,50.20
2022-08-18T16:18:17.086Z,50.40
2022-08-18T16:20:44.830Z,50.40
2022-08-18T16:23:12.616Z,50.30
2022-08-18T16:25:40.804Z,50.20
2022-08-18T16:28:07.744Z,50.50
2022-08-18T16:30:34.823Z,50.40
2022-08-18T16:33:03.703Z,50.30
2022-08-18T16:35:31.373Z,50.40
2022-08-18T16:38:08.446Z,50.40
2022-08-18T16:40:36.002Z,50.50
2022-08-18T16:43:02.813Z,50.50
2022-08-18T16:45:31.554Z,50.50
2022-08-18T16:47:58.638Z,50.50
2022-08-18T16:50:25.839Z,50.30
2022-08-18T16:52:52.719Z,50.40
2022-08-18T16:55:20.190Z,50.50
2022-08-18T16:58:05.659Z,50.50
2022-08-18T17:00:55.269Z,50.40
2022-08-18T17:03:42.368Z,50.60
2022-08-18T17:06:13.889Z,50.70
2022-08-18T17:08:42.487Z,50.80
2022-08-18T17:11:15.293Z,50.60
2022-08-18T17:13:43.578Z,50.70
2022-08-18T17:16:11.764Z,50.80
2022-08-18T17:18:38.855Z,50.90
2022-08-18T17:21:07.681Z,50.90
2022-08-18T17:23:34.438Z,51.00
2022-08-18T17:26:08.605Z,50.90
2022-08-18T17:28:46.121Z,51.00
2022-08-18T17:31:24.279Z,51.20
2022-08-18T17:33:54.755Z,51.20
2022-08-18T17:36:28.045Z,51.00
2022-08-18T17:38:58.520Z,51.20
2022-08-18T17:41:25.959Z,51.30
2022-08-18T17:43:56.347Z,51.20
2022-08-18T17:46:32.251Z,51.40
2022-08-18T17:49:13.084Z,51.30
2022-08-18T17:51:47.856Z,51.50
2022-08-18T17:54:36.819Z,51.40
2022-08-18T17:57:13.052Z,51.30
2022-08-18T18:00:11.332Z,51.40
2022-08-18T18:02:39.488Z,50.50
2022-08-18T18:05:09.380Z,51.50
2022-08-18T18:07:39.880Z,51.60
2022-08-18T18:10:22.128Z,51.60
2022-08-18T18:13:16.991Z,51.60
2022-08-18T18:15:47.375Z,50.90
2022-08-18T18:18:45.266Z,51.60
2022-08-18T18:21:15.739Z,50.70
2022-08-18T18:23:59.283Z,51.90
2022-08-18T18:26:30.028Z,52.00
2022-08-18T18:29:12.649Z,52.00
2022-08-18T18:31:41.861Z,51.30
2022-08-18T18:34:32.380Z,52.00
2022-08-18T18:37:01.167Z,50.90
2022-08-18T18:39:34.027Z,52.20
2022-08-18T18:42:32.570Z,52.40
2022-08-18T18:45:03.036Z,50.70
2022-08-18T18:47:41.011Z,52.30
2022-08-18T18:50:18.345Z,52.40
2022-08-18T18:53:11.120Z,52.50
2022-08-18T18:55:48.723Z,51.70
2022-08-18T18:58:23.133Z,52.80
2022-08-18T19:00:56.144Z,52.70
2022-08-18T19:03:49.341Z,50.20
2022-08-18T19:06:26.314Z,52.60
2022-08-18T19:09:08.483Z,52.80
2022-08-18T19:12:05.254Z,53.00
2022-08-18T19:14:36.742Z,53.10
2022-08-18T19:17:14.602Z,53.40
2022-08-18T19:19:50.787Z,53.40
2022-08-18T19:23:05.668Z,53.50
2022-08-18T19:25:41.816Z,51.70
2022-08-18T19:28:30.037Z,53.50
2022-08-18T19:31:01.964Z,53.10
2022-08-18T19:33:39.454Z,53.70
2022-08-18T19:36:35.260Z,53.70
2022-08-18T19:39:40.457Z,53.80
2022-08-18T19:42:26.583Z,52.60
2022-08-18T19:45:36.365Z,53.20
2022-08-18T19:48:07.636Z,52.60
2022-08-18T19:50:42.111Z,53.90
2022-08-18T19:53:25.482Z,54.10
2022-08-18T19:56:22.612Z,51.30
2022-08-18T19:59:21.410Z,54.00
2022-08-18T20:02:26.542Z,53.30
2022-08-18T20:05:15.401Z,53.10
2022-08-18T20:07:55.326Z,54.20
2022-08-18T20:10:39.176Z,54.40
2022-08-18T20:13:27.670Z,54.40
2022-08-18T20:16:31.380Z,54.60
2022-08-18T20:19:36.142Z,53.10
2022-08-18T20:22:05.932Z,53.60
2022-08-18T20:24:35.865Z,54.70
2022-08-18T20:27:19.779Z,54.70
2022-08-18T20:29:48.072Z,53.90
2022-08-18T20:32:35.404Z,54.80
2022-08-18T20:35:24.323Z,53.80
2022-08-18T20:37:51.504Z,54.10
2022-08-18T20:40:45.287Z,54.90
2022-08-18T20:43:41.328Z,54.00
2022-08-18T20:46:26.554Z,53.90
2022-08-18T20:49:18.856Z,54.10
2022-08-18T20:51:56.774Z,54.30
2022-08-18T20:54:50.241Z,55.30
2022-08-18T20:57:25.476Z,54.60
2022-08-18T21:00:22.673Z,55.10
2022-08-18T21:02:57.275Z,55.10
2022-08-18T21:05:45.143Z,55.30
2022-08-18T21:08:16.177Z,54.20
2022-08-18T21:10:52.131Z,55.50
2022-08-18T21:13:41.798Z,55.30
2022-08-18T21:16:13.610Z,55.30
2022-08-18T21:19:00.959Z,55.60
2022-08-18T21:21:33.656Z,55.20
2022-08-18T21:24:03.621Z,55.40
2022-08-18T21:26:32.513Z,55.50
2022-08-18T21:29:08.936Z,55.60
2022-08-18T21:31:43.703Z,55.60
2022-08-18T21:34:29.237Z,55.70
2022-08-18T21:36:58.176Z,55.70
2022-08-18T21:39:25.508Z,55.50
2022-08-18T21:41:55.656Z,55.60
2022-08-18T21:44:34.520Z,55.90
2022-08-18T21:47:09.699Z,55.80
2022-08-18T21:49:37.721Z,55.90
2022-08-18T21:52:04.434Z,55.70
2022-08-18T21:54:34.471Z,55.70
2022-08-18T21:57:19.835Z,55.80
2022-08-18T22:00:25.414Z,54.80
2022-08-18T22:03:10.860Z,54.70
2022-08-18T22:05:57.798Z,54.90
2022-08-18T22:08:27.460Z,55.80
2022-08-18T22:11:59.533Z,55.70
2022-08-18T22:14:53.794Z,55.50
2022-08-18T22:17:31.289Z,55.80
2022-08-18T22:20:33.804Z,55.50
2022-08-18T22:23:34.120Z,55.00
2022-08-18T22:26:21.781Z,56.00
2022-08-18T22:28:57.053Z,55.00
2022-08-18T22:31:26.072Z,56.00
2022-08-18T22:33:54.720Z,55.90
2022-08-18T22:36:25.931Z,55.80
2022-08-18T22:38:52.597Z,56.10
2022-08-18T22:41:20.536Z,55.70
2022-08-18T22:43:47.761Z,55.80
2022-08-18T22:46:21.687Z,55.80
2022-08-18T22:48:51.522Z,55.80
2022-08-18T22:51:22.691Z,55.80
2022-08-18T22:53:49.426Z,56.10
2022-08-18T22:56:16.143Z,55.90
2022-08-18T22:58:49.378Z,56.00
2022-08-18T23:01:17.652Z,56.00
2022-08-18T23:03:44.591Z,56.20
2022-08-18T23:06:11.805Z,56.10
2022-08-18T23:08:55.375Z,55.90
2022-08-18T23:11:24.312Z,56.00
2022-08-18T23:13:51.248Z,55.80
2022-08-18T23:16:31.784Z,56.10
2022-08-18T23:19:03.709Z,56.20
2022-08-18T23:21:33.638Z,56.20
2022-08-18T23:24:01.739Z,56.30
2022-08-18T23:26:29.657Z,56.10
2022-08-18T23:28:57.450Z,56.00
2022-08-18T23:31:24.149Z,56.10
2022-08-18T23:33:51.305Z,56.00
2022-08-18T23:36:17.985Z,56.10
2022-08-18T23:38:44.722Z,56.30
2022-08-18T23:41:13.641Z,56.30
2022-08-18T23:43:41.422Z,56.40
2022-08-18T23:46:17.919Z,56.40
2022-08-18T23:48:49.516Z,56.40
2022-08-18T23:51:32.892Z,56.30
2022-08-18T23:54:03.276Z,56.20
2022-08-18T23:56:31.268Z,56.30
2022-08-18T23:58:59.193Z,56.20
